Am Tubarao — A8ZA9 — position and weather

sailwx.info

Track history (hours):
 
Tides and Currents Weather Stations Pressure Air Temp Water Temp Dewpoint Dewpoint Depression Visibility Wind Speed Wind Dir Waves Ship Positions

Am Tubarao

Last reported at 2017-Jun-14 15:53 UTC. Time now 2017-Jun-24 22:39 UTC.
Position N 36°51' W 075°49'.
Warning: this ship's position is 10 days out of date.

Length 230 m; draft 13.7 m.

Type: Cargo ship. MMSI: 636015171.

Date/timePositionNaut miles runAvg speedWind from/ knotsBaromVisibWave heightAir tempDewpointWater temp
2017-Jun-14 15:53N 36°51' W 075°49'3 8.8
2017-Jun-14 15:30N 36°52' W 075°52'5 9.2
2017-Jun-14 15:00N 36°56' W 075°56'10 9.5
2017-Jun-14 14:00N 36°59' W 076°08'10 9.4
2017-Jun-14 12:56N 36°58' W 076°20'4 9.5
2017-Jun-14 12:30N 36°54' W 076°20'2 3.1
2017-Jun-14 12:01N 36°53' W 076°20'0 0.0
2017-Jun-14 11:28N 36°53' W 076°20'0 0.0
2017-Jun-14 10:58N 36°53' W 076°20'0 0.0
2017-Jun-14 10:28N 36°53' W 076°20'0 0.0
2017-Jun-14 09:58N 36°53' W 076°20'0 0.0
2017-Jun-14 09:28N 36°53' W 076°20'0 0.0
2017-Jun-14 08:58N 36°53' W 076°20'0 0.0
2017-Jun-14 08:25N 36°53' W 076°20'0 0.0
2017-Jun-14 07:58N 36°53' W 076°20'0 0.0
2017-Jun-14 07:28N 36°53' W 076°20'0 0.0
2017-Jun-14 06:58N 36°53' W 076°20'0 0.0
2017-Jun-14 06:28N 36°53' W 076°20'0 0.0
2017-Jun-14 05:58N 36°53' W 076°20'0 0.0
2017-Jun-14 05:28N 36°53' W 076°20'0 0.0
2017-Jun-14 04:58N 36°53' W 076°20'0 0.0
2017-Jun-14 04:28N 36°53' W 076°20'0 0.0
2017-Jun-14 03:58N 36°53' W 076°20'0 0.0
2017-Jun-14 03:28N 36°53' W 076°20'0 0.0
2017-Jun-14 02:58N 36°53' W 076°20'0 0.0
2017-Jun-14 02:28N 36°53' W 076°20'0 0.0
2017-Jun-14 01:58N 36°53' W 076°20'0 0.0
2017-Jun-14 01:28N 36°53' W 076°20'0 0.0
2017-Jun-14 00:58N 36°53' W 076°20'0 0.0
2017-Jun-14 00:28N 36°53' W 076°20'0 0.0
2017-Jun-13 23:58N 36°53' W 076°20'0 0.0
2017-Jun-13 23:28N 36°53' W 076°20'0 0.0
2017-Jun-13 22:58N 36°53' W 076°20'0 0.0
2017-Jun-13 22:25N 36°53' W 076°20'0 0.0
2017-Jun-13 21:58N 36°53' W 076°20'0 0.0
2017-Jun-13 21:28N 36°53' W 076°20'0 0.0
2017-Jun-13 20:58N 36°53' W 076°20'0 0.0
2017-Jun-13 20:28N 36°53' W 076°20'0 0.0
2017-Jun-13 19:58N 36°53' W 076°20'0 0.0
2017-Jun-13 19:25N 36°53' W 076°20'0 0.0
2017-Jun-13 18:58N 36°53' W 076°20'0 0.0
2017-Jun-13 18:28N 36°53' W 076°20'0 0.0
2017-Jun-13 17:58N 36°53' W 076°20'0 0.0
2017-Jun-13 17:28N 36°53' W 076°20'0 0.0
2017-Jun-13 16:58N 36°53' W 076°20'0 0.0
2017-Jun-13 16:28N 36°53' W 076°20'0 0.0
2017-Jun-13 15:58N 36°53' W 076°20'0 0.0
2017-Jun-13 15:28N 36°53' W 076°20'0 0.0
2017-Jun-13 14:58N 36°53' W 076°20'0 0.0
2017-Jun-13 14:28N 36°53' W 076°20'0 0.0
2017-Jun-13 13:28N 36°53' W 076°20'0 0.0
2017-Jun-13 12:58N 36°53' W 076°20'0 0.0
2017-Jun-13 12:28N 36°53' W 076°20'0 0.0
2017-Jun-13 11:58N 36°53' W 076°20'0 0.0
2017-Jun-13 11:28N 36°53' W 076°20'0 0.0
2017-Jun-13 10:58N 36°53' W 076°20'0 0.0
2017-Jun-13 10:28N 36°53' W 076°20'0 0.0
2017-Jun-13 09:58N 36°53' W 076°20'0 0.0
2017-Jun-13 09:28N 36°53' W 076°20'0 0.0
2017-Jun-13 08:58N 36°53' W 076°20'0 0.0
2017-Jun-13 08:28N 36°53' W 076°20'0 0.0
2017-Jun-13 07:58N 36°53' W 076°20'0 0.0
2017-Jun-13 07:25N 36°53' W 076°20'0 0.0
2017-Jun-13 06:55N 36°53' W 076°20'0 0.0
2017-Jun-13 06:28N 36°53' W 076°20'0 0.0
2017-Jun-13 05:55N 36°53' W 076°20'0 0.0
2017-Jun-13 05:28N 36°53' W 076°20'0 0.0
2017-Jun-13 04:58N 36°53' W 076°20'0 0.0
2017-Jun-13 04:28N 36°53' W 076°20'0 0.0
2017-Jun-13 03:58N 36°53' W 076°20'0 0.0
2017-Jun-13 03:28N 36°53' W 076°20'0 0.0
2017-Jun-13 02:58N 36°53' W 076°20'0 0.0
2017-Jun-13 02:28N 36°53' W 076°20'0 0.0
2017-Jun-13 02:01N 36°53' W 076°20'0 0.0
2017-Jun-13 01:31N 36°53' W 076°20'0 0.0
2017-Jun-13 00:58N 36°53' W 076°20'0 0.0
2017-Jun-13 00:28N 36°53' W 076°20'0 0.0
2017-Jun-12 23:58N 36°53' W 076°20'0 0.0
2017-Jun-12 23:28N 36°53' W 076°20'0 0.0
2017-Jun-12 22:58N 36°53' W 076°20'0 0.0
2017-Jun-12 22:28N 36°53' W 076°20'0 0.0
2017-Jun-12 21:57N 36°53' W 076°20'0 0.0
2017-Jun-12 21:28N 36°53' W 076°20'0 0.0
2017-Jun-12 21:01N 36°53' W 076°20'0 0.0
2017-Jun-12 20:31N 36°53' W 076°20'0 0.0
2017-Jun-12 19:57N 36°53' W 076°20'0 0.0
2017-Jun-12 19:28N 36°53' W 076°20'0 0.0
2017-Jun-12 19:01N 36°53' W 076°20'0 0.0
2017-Jun-12 18:28N 36°53' W 076°20'0 0.0
2017-Jun-12 18:01N 36°53' W 076°20'0 0.0
2017-Jun-12 17:30N 36°53' W 076°20'0 0.0
2017-Jun-12 16:58N 36°53' W 076°20'0 0.0
2017-Jun-12 16:30N 36°53' W 076°20'0 0.0
2017-Jun-12 15:58N 36°53' W 076°20'0 0.0
2017-Jun-12 15:31N 36°53' W 076°20'0 0.0
2017-Jun-12 15:01N 36°53' W 076°20'0 0.0
2017-Jun-12 14:30N 36°53' W 076°20'0 0.0
2017-Jun-12 13:27N 36°53' W 076°20'0 0.0
2017-Jun-12 13:00N 36°53' W 076°20'0 0.0
2017-Jun-12 12:31N 36°53' W 076°20'0 0.0
2017-Jun-12 12:00N 36°53' W 076°20'0 0.0
2017-Jun-12 11:30N 36°53' W 076°20'0 0.0
2017-Jun-12 11:00N 36°53' W 076°20'0 0.0
2017-Jun-12 10:30N 36°53' W 076°20'0 0.0
2017-Jun-12 09:58N 36°53' W 076°20'0 0.0
2017-Jun-12 09:30N 36°53' W 076°20'0 0.0
2017-Jun-12 09:01N 36°53' W 076°20'0 0.0
2017-Jun-12 08:30N 36°53' W 076°20'0 0.0
2017-Jun-12 08:00N 36°53' W 076°20'0 0.0
2017-Jun-12 07:30N 36°53' W 076°20'0 0.0
2017-Jun-12 07:00N 36°53' W 076°20'0 0.0
2017-Jun-12 06:30N 36°53' W 076°20'0 0.0
2017-Jun-12 05:57N 36°53' W 076°20'0 0.0
2017-Jun-12 05:30N 36°53' W 076°20'0 0.0
2017-Jun-12 05:00N 36°53' W 076°20'0 0.0
2017-Jun-12 04:30N 36°53' W 076°20'0 0.0
2017-Jun-12 04:00N 36°53' W 076°20'0 0.0
2017-Jun-12 03:30N 36°53' W 076°20'0 0.0
2017-Jun-12 03:00N 36°53' W 076°20'0 0.0
2017-Jun-12 02:30N 36°53' W 076°20'0 0.0
2017-Jun-12 02:00N 36°53' W 076°20'0 0.0
2017-Jun-12 01:30N 36°53' W 076°20'0 0.0
2017-Jun-12 01:00N 36°53' W 076°20'0 0.0
2017-Jun-12 00:30N 36°53' W 076°20'0 0.0
2017-Jun-12 00:00N 36°53' W 076°20'0 0.0
2017-Jun-11 23:30N 36°53' W 076°20'0 0.0
2017-Jun-11 23:00N 36°53' W 076°20'0 0.0
2017-Jun-11 22:30N 36°53' W 076°20'0 0.0
2017-Jun-11 21:57N 36°53' W 076°20'0 0.0
2017-Jun-11 21:30N 36°53' W 076°20'0 0.0
2017-Jun-11 21:00N 36°53' W 076°20'0 0.0
2017-Jun-11 20:30N 36°53' W 076°20'0 0.0
2017-Jun-11 20:00N 36°53' W 076°20'0 0.0
2017-Jun-11 19:30N 36°53' W 076°20'0 0.0
2017-Jun-11 19:00N 36°53' W 076°20'0 0.0
2017-Jun-11 18:30N 36°53' W 076°20'0 0.0
2017-Jun-11 18:00N 36°53' W 076°20'0 0.0
2017-Jun-11 17:30N 36°53' W 076°20'0 0.0
2017-Jun-11 17:00N 36°53' W 076°20'0 0.0
2017-Jun-11 16:30N 36°53' W 076°20'0 0.0
2017-Jun-11 16:00N 36°53' W 076°20'0 0.0
2017-Jun-11 15:30N 36°53' W 076°20'0 0.0
2017-Jun-11 15:00N 36°53' W 076°20'0 0.0
2017-Jun-11 14:30N 36°53' W 076°20'0 0.0
2017-Jun-11 13:30N 36°53' W 076°20'0 0.0
2017-Jun-11 13:00N 36°53' W 076°20'0 0.0
2017-Jun-11 12:30N 36°53' W 076°20'0 0.0
2017-Jun-11 11:57N 36°53' W 076°20'0 0.0
2017-Jun-11 11:30N 36°53' W 076°20'0 0.0
2017-Jun-11 11:00N 36°53' W 076°20'0 0.0
2017-Jun-11 10:30N 36°53' W 076°20'0 0.0
2017-Jun-11 10:00N 36°53' W 076°20'0 0.0
2017-Jun-11 09:30N 36°53' W 076°20'0 0.0
2017-Jun-11 09:00N 36°53' W 076°20'0 0.0
2017-Jun-11 08:30N 36°53' W 076°20'0 0.0
2017-Jun-11 08:00N 36°53' W 076°20'0 0.0
2017-Jun-11 07:24N 36°53' W 076°20'0 0.0
2017-Jun-11 07:00N 36°53' W 076°20'0 0.0
2017-Jun-11 06:30N 36°53' W 076°20'0 0.0
2017-Jun-11 06:00N 36°53' W 076°20'0 0.0
2017-Jun-11 05:30N 36°53' W 076°20'0 0.0
2017-Jun-11 05:00N 36°53' W 076°20'0 0.0
2017-Jun-11 04:30N 36°53' W 076°20'0 0.0
2017-Jun-11 04:00N 36°53' W 076°20'0 0.0
2017-Jun-11 03:24N 36°53' W 076°20'0 0.0
2017-Jun-11 03:00N 36°53' W 076°20'0 0.0
2017-Jun-11 02:30N 36°53' W 076°20'0 0.0
2017-Jun-11 02:00N 36°53' W 076°20'0 0.0
2017-Jun-11 01:30N 36°53' W 076°20'0 0.0
2017-Jun-11 01:00N 36°53' W 076°20'0 0.0
2017-Jun-11 00:30N 36°53' W 076°20'0 0.0
2017-Jun-11 00:00N 36°53' W 076°20'0 0.0
2017-Jun-10 23:30N 36°53' W 076°20'0 0.0
2017-Jun-10 23:00N 36°53' W 076°20'0 0.0
2017-Jun-10 22:31N 36°53' W 076°20'1 1.5
2017-Jun-10 22:00N 36°53' W 076°20'11 7.5
2017-Jun-10 20:31N 36°59' W 076°08'611.0
2017-Jun-10 20:00N 36°57' W 076°01'510.0
2017-Jun-10 19:31N 37°02' W 076°04'714.4
2017-Jun-10 19:00N 37°08' W 076°08'6 9.2
2017-Jun-10 18:24N 37°13' W 076°06'1 0.2
2017-Jun-10 13:19N 37°13' W 076°05'0 0.1
2017-Jun-10 12:58N 37°13' W 076°05'0 0.0
2017-Jun-10 12:25N 37°13' W 076°05'0 0.0
2017-Jun-10 11:28N 37°13' W 076°05'0 0.0
2017-Jun-10 10:49N 37°13' W 076°05'0 0.0
2017-Jun-10 10:28N 37°13' W 076°05'0 0.0
2017-Jun-10 09:58N 37°13' W 076°05'0 0.0
2017-Jun-10 09:28N 37°13' W 076°05'0 0.0
2017-Jun-10 08:49N 37°13' W 076°05'0 0.0
2017-Jun-10 08:22N 37°13' W 076°05'0 0.0
2017-Jun-10 07:55N 37°13' W 076°05'0 0.0
2017-Jun-10 07:28N 37°13' W 076°05'0 0.1
2017-Jun-10 06:19N 37°13' W 076°05'0 0.1
2017-Jun-10 05:55N 37°14' W 076°05'0 0.1
2017-Jun-10 05:25N 37°14' W 076°05'0 0.1
2017-Jun-10 04:55N 37°14' W 076°05'0 0.0
2017-Jun-10 00:55N 37°14' W 076°05'0 0.0
2017-Jun-10 00:28N 37°14' W 076°05'  
2017-Jun-07 17:08N 38°45' W 076°26'214.3
2017-Jun-07 17:00N 38°47' W 076°25'714.5
2017-Jun-07 16:30N 38°54' W 076°24'714.6
2017-Jun-07 16:00N 39°01' W 076°23'713.9
2017-Jun-07 15:30N 39°08' W 076°24'611.5
2017-Jun-07 15:00N 39°12' W 076°30'5 4.5
2017-Jun-07 13:55N 39°15' W 076°34'0 0.0
2017-Jun-07 13:28N 39°15' W 076°34'0 0.0
2017-Jun-07 12:58N 39°15' W 076°34'0 0.0
2017-Jun-07 12:25N 39°15' W 076°34'0 0.0
2017-Jun-07 11:58N 39°15' W 076°34'0 0.0
2017-Jun-07 11:28N 39°15' W 076°34'0 0.0
2017-Jun-07 10:58N 39°15' W 076°34'0 0.0
2017-Jun-07 10:28N 39°15' W 076°34'0 0.0
2017-Jun-07 09:55N 39°15' W 076°34'0 0.0
2017-Jun-07 09:28N 39°15' W 076°34'0 0.0
2017-Jun-07 08:58N 39°15' W 076°34'0 0.0
2017-Jun-07 08:28N 39°15' W 076°34'0 0.0
2017-Jun-07 07:58N 39°15' W 076°34'0 0.0
2017-Jun-07 07:28N 39°15' W 076°34'0 0.0
2017-Jun-07 06:58N 39°15' W 076°34'0 0.0
2017-Jun-07 06:25N 39°15' W 076°34'0 0.0
2017-Jun-07 05:58N 39°15' W 076°34'0 0.0
2017-Jun-07 05:28N 39°15' W 076°34'0 0.0
2017-Jun-07 04:58N 39°15' W 076°34'0 0.0
2017-Jun-07 04:28N 39°15' W 076°34'0 0.0
2017-Jun-07 03:58N 39°15' W 076°34'0 0.0
2017-Jun-07 03:22N 39°15' W 076°34'0 0.0
2017-Jun-07 02:55N 39°15' W 076°34'0 0.0
2017-Jun-07 02:28N 39°15' W 076°34'0 0.0
2017-Jun-07 01:58N 39°15' W 076°34'0 0.0
2017-Jun-07 01:28N 39°15' W 076°34'0 0.0
2017-Jun-07 00:58N 39°15' W 076°34'0 0.0
2017-Jun-07 00:28N 39°15' W 076°34'0 0.0
2017-Jun-06 23:58N 39°15' W 076°34'0 0.0
2017-Jun-06 23:28N 39°15' W 076°34'0 0.0
2017-Jun-06 22:58N 39°15' W 076°34'0 0.0
2017-Jun-06 22:28N 39°15' W 076°34'0 0.0
2017-Jun-06 21:58N 39°15' W 076°34'0 0.0
2017-Jun-06 21:28N 39°15' W 076°34'0 0.0
2017-Jun-06 20:58N 39°15' W 076°34'0 0.4
2017-Jun-06 20:30N 39°15' W 076°34'3 5.9
2017-Jun-06 20:01N 39°13' W 076°32'510.2
2017-Jun-06 19:30N 39°10' W 076°26'713.1
2017-Jun-06 19:00N 39°04' W 076°24'713.1
2017-Jun-06 18:30N 38°57' W 076°24'713.6
2017-Jun-06 18:01N 38°51' W 076°24'4713.6
2017-Jun-06 14:35N 38°05' W 076°13'313.7
2017-Jun-06 14:22N 38°02' W 076°13'5813.1
2017-Jun-06 09:57N 37°04' W 076°06'814.0
2017-Jun-06 09:24N 36°58' W 075°60'410.9
2017-Jun-06 09:00N 36°56' W 075°56'4 8.3
2017-Jun-06 08:30N 36°53' W 075°52'  
Track history (hours):
 
Tides and Currents Weather Stations Pressure Air Temp Water Temp Dewpoint Dewpoint Depression Visibility Wind Speed Wind Dir Waves Ship Positions

Am Tubarao

Last reported at 2017-Jun-14 15:53 UTC. Time now 2017-Jun-24 22:39 UTC.
Position N 36°51' W 075°49'.
Warning: this ship's position is 10 days out of date.

Length 230 m; draft 13.7 m.

Type: Cargo ship. MMSI: 636015171.

Date/timePositionNaut miles runAvg speedWind from/ knotsBaromVisibWave heightAir tempDewpointWater temp
2017-Jun-14 15:53N 36°51' W 075°49'3 8.8
2017-Jun-14 15:30N 36°52' W 075°52'5 9.2
2017-Jun-14 15:00N 36°56' W 075°56'10 9.5
2017-Jun-14 14:00N 36°59' W 076°08'10 9.4
2017-Jun-14 12:56N 36°58' W 076°20'4 9.5
2017-Jun-14 12:30N 36°54' W 076°20'2 3.1
2017-Jun-14 12:01N 36°53' W 076°20'0 0.0
2017-Jun-14 11:28N 36°53' W 076°20'0 0.0
2017-Jun-14 10:58N 36°53' W 076°20'0 0.0
2017-Jun-14 10:28N 36°53' W 076°20'0 0.0
2017-Jun-14 09:58N 36°53' W 076°20'0 0.0
2017-Jun-14 09:28N 36°53' W 076°20'0 0.0
2017-Jun-14 08:58N 36°53' W 076°20'0 0.0
2017-Jun-14 08:25N 36°53' W 076°20'0 0.0
2017-Jun-14 07:58N 36°53' W 076°20'0 0.0
2017-Jun-14 07:28N 36°53' W 076°20'0 0.0
2017-Jun-14 06:58N 36°53' W 076°20'0 0.0
2017-Jun-14 06:28N 36°53' W 076°20'0 0.0
2017-Jun-14 05:58N 36°53' W 076°20'0 0.0
2017-Jun-14 05:28N 36°53' W 076°20'0 0.0
2017-Jun-14 04:58N 36°53' W 076°20'0 0.0
2017-Jun-14 04:28N 36°53' W 076°20'0 0.0
2017-Jun-14 03:58N 36°53' W 076°20'0 0.0
2017-Jun-14 03:28N 36°53' W 076°20'0 0.0
2017-Jun-14 02:58N 36°53' W 076°20'0 0.0
2017-Jun-14 02:28N 36°53' W 076°20'0 0.0
2017-Jun-14 01:58N 36°53' W 076°20'0 0.0
2017-Jun-14 01:28N 36°53' W 076°20'0 0.0
2017-Jun-14 00:58N 36°53' W 076°20'0 0.0
2017-Jun-14 00:28N 36°53' W 076°20'0 0.0
2017-Jun-13 23:58N 36°53' W 076°20'0 0.0
2017-Jun-13 23:28N 36°53' W 076°20'0 0.0
2017-Jun-13 22:58N 36°53' W 076°20'0 0.0
2017-Jun-13 22:25N 36°53' W 076°20'0 0.0
2017-Jun-13 21:58N 36°53' W 076°20'0 0.0
2017-Jun-13 21:28N 36°53' W 076°20'0 0.0
2017-Jun-13 20:58N 36°53' W 076°20'0 0.0
2017-Jun-13 20:28N 36°53' W 076°20'0 0.0
2017-Jun-13 19:58N 36°53' W 076°20'0 0.0
2017-Jun-13 19:25N 36°53' W 076°20'0 0.0
2017-Jun-13 18:58N 36°53' W 076°20'0 0.0
2017-Jun-13 18:28N 36°53' W 076°20'0 0.0
2017-Jun-13 17:58N 36°53' W 076°20'0 0.0
2017-Jun-13 17:28N 36°53' W 076°20'0 0.0
2017-Jun-13 16:58N 36°53' W 076°20'0 0.0
2017-Jun-13 16:28N 36°53' W 076°20'0 0.0
2017-Jun-13 15:58N 36°53' W 076°20'0 0.0
2017-Jun-13 15:28N 36°53' W 076°20'0 0.0
2017-Jun-13 14:58N 36°53' W 076°20'0 0.0
2017-Jun-13 14:28N 36°53' W 076°20'0 0.0
2017-Jun-13 13:28N 36°53' W 076°20'0 0.0
2017-Jun-13 12:58N 36°53' W 076°20'0 0.0
2017-Jun-13 12:28N 36°53' W 076°20'0 0.0
2017-Jun-13 11:58N 36°53' W 076°20'0 0.0
2017-Jun-13 11:28N 36°53' W 076°20'0 0.0
2017-Jun-13 10:58N 36°53' W 076°20'0 0.0
2017-Jun-13 10:28N 36°53' W 076°20'0 0.0
2017-Jun-13 09:58N 36°53' W 076°20'0 0.0
2017-Jun-13 09:28N 36°53' W 076°20'0 0.0
2017-Jun-13 08:58N 36°53' W 076°20'0 0.0
2017-Jun-13 08:28N 36°53' W 076°20'0 0.0
2017-Jun-13 07:58N 36°53' W 076°20'0 0.0
2017-Jun-13 07:25N 36°53' W 076°20'0 0.0
2017-Jun-13 06:55N 36°53' W 076°20'0 0.0
2017-Jun-13 06:28N 36°53' W 076°20'0 0.0
2017-Jun-13 05:55N 36°53' W 076°20'0 0.0
2017-Jun-13 05:28N 36°53' W 076°20'0 0.0
2017-Jun-13 04:58N 36°53' W 076°20'0 0.0
2017-Jun-13 04:28N 36°53' W 076°20'0 0.0
2017-Jun-13 03:58N 36°53' W 076°20'0 0.0
2017-Jun-13 03:28N 36°53' W 076°20'0 0.0
2017-Jun-13 02:58N 36°53' W 076°20'0 0.0
2017-Jun-13 02:28N 36°53' W 076°20'0 0.0
2017-Jun-13 02:01N 36°53' W 076°20'0 0.0
2017-Jun-13 01:31N 36°53' W 076°20'0 0.0
2017-Jun-13 00:58N 36°53' W 076°20'0 0.0
2017-Jun-13 00:28N 36°53' W 076°20'0 0.0
2017-Jun-12 23:58N 36°53' W 076°20'0 0.0
2017-Jun-12 23:28N 36°53' W 076°20'0 0.0
2017-Jun-12 22:58N 36°53' W 076°20'0 0.0
2017-Jun-12 22:28N 36°53' W 076°20'0 0.0
2017-Jun-12 21:57N 36°53' W 076°20'0 0.0
2017-Jun-12 21:28N 36°53' W 076°20'0 0.0
2017-Jun-12 21:01N 36°53' W 076°20'0 0.0
2017-Jun-12 20:31N 36°53' W 076°20'0 0.0
2017-Jun-12 19:57N 36°53' W 076°20'0 0.0
2017-Jun-12 19:28N 36°53' W 076°20'0 0.0
2017-Jun-12 19:01N 36°53' W 076°20'0 0.0
2017-Jun-12 18:28N 36°53' W 076°20'0 0.0
2017-Jun-12 18:01N 36°53' W 076°20'0 0.0
2017-Jun-12 17:30N 36°53' W 076°20'0 0.0
2017-Jun-12 16:58N 36°53' W 076°20'0 0.0
2017-Jun-12 16:30N 36°53' W 076°20'0 0.0
2017-Jun-12 15:58N 36°53' W 076°20'0 0.0
2017-Jun-12 15:31N 36°53' W 076°20'0 0.0
2017-Jun-12 15:01N 36°53' W 076°20'0 0.0
2017-Jun-12 14:30N 36°53' W 076°20'0 0.0
2017-Jun-12 13:27N 36°53' W 076°20'0 0.0
2017-Jun-12 13:00N 36°53' W 076°20'0 0.0
2017-Jun-12 12:31N 36°53' W 076°20'0 0.0
2017-Jun-12 12:00N 36°53' W 076°20'0 0.0
2017-Jun-12 11:30N 36°53' W 076°20'0 0.0
2017-Jun-12 11:00N 36°53' W 076°20'0 0.0
2017-Jun-12 10:30N 36°53' W 076°20'0 0.0
2017-Jun-12 09:58N 36°53' W 076°20'0 0.0
2017-Jun-12 09:30N 36°53' W 076°20'0 0.0
2017-Jun-12 09:01N 36°53' W 076°20'0 0.0
2017-Jun-12 08:30N 36°53' W 076°20'0 0.0
2017-Jun-12 08:00N 36°53' W 076°20'0 0.0
2017-Jun-12 07:30N 36°53' W 076°20'0 0.0
2017-Jun-12 07:00N 36°53' W 076°20'0 0.0
2017-Jun-12 06:30N 36°53' W 076°20'0 0.0
2017-Jun-12 05:57N 36°53' W 076°20'0 0.0
2017-Jun-12 05:30N 36°53' W 076°20'0 0.0
2017-Jun-12 05:00N 36°53' W 076°20'0 0.0
2017-Jun-12 04:30N 36°53' W 076°20'0 0.0
2017-Jun-12 04:00N 36°53' W 076°20'0 0.0
2017-Jun-12 03:30N 36°53' W 076°20'0 0.0
2017-Jun-12 03:00N 36°53' W 076°20'0 0.0
2017-Jun-12 02:30N 36°53' W 076°20'0 0.0
2017-Jun-12 02:00N 36°53' W 076°20'0 0.0
2017-Jun-12 01:30N 36°53' W 076°20'0 0.0
2017-Jun-12 01:00N 36°53' W 076°20'0 0.0
2017-Jun-12 00:30N 36°53' W 076°20'0 0.0
2017-Jun-12 00:00N 36°53' W 076°20'0 0.0
2017-Jun-11 23:30N 36°53' W 076°20'0 0.0
2017-Jun-11 23:00N 36°53' W 076°20'0 0.0
2017-Jun-11 22:30N 36°53' W 076°20'0 0.0
2017-Jun-11 21:57N 36°53' W 076°20'0 0.0
2017-Jun-11 21:30N 36°53' W 076°20'0 0.0
2017-Jun-11 21:00N 36°53' W 076°20'0 0.0
2017-Jun-11 20:30N 36°53' W 076°20'0 0.0
2017-Jun-11 20:00N 36°53' W 076°20'0 0.0
2017-Jun-11 19:30N 36°53' W 076°20'0 0.0
2017-Jun-11 19:00N 36°53' W 076°20'0 0.0
2017-Jun-11 18:30N 36°53' W 076°20'0 0.0
2017-Jun-11 18:00N 36°53' W 076°20'0 0.0
2017-Jun-11 17:30N 36°53' W 076°20'0 0.0
2017-Jun-11 17:00N 36°53' W 076°20'0 0.0
2017-Jun-11 16:30N 36°53' W 076°20'0 0.0
2017-Jun-11 16:00N 36°53' W 076°20'0 0.0
2017-Jun-11 15:30N 36°53' W 076°20'0 0.0
2017-Jun-11 15:00N 36°53' W 076°20'0 0.0
2017-Jun-11 14:30N 36°53' W 076°20'0 0.0
2017-Jun-11 13:30N 36°53' W 076°20'0 0.0
2017-Jun-11 13:00N 36°53' W 076°20'0 0.0
2017-Jun-11 12:30N 36°53' W 076°20'0 0.0
2017-Jun-11 11:57N 36°53' W 076°20'0 0.0
2017-Jun-11 11:30N 36°53' W 076°20'0 0.0
2017-Jun-11 11:00N 36°53' W 076°20'0 0.0
2017-Jun-11 10:30N 36°53' W 076°20'0 0.0
2017-Jun-11 10:00N 36°53' W 076°20'0 0.0
2017-Jun-11 09:30N 36°53' W 076°20'0 0.0
2017-Jun-11 09:00N 36°53' W 076°20'0 0.0
2017-Jun-11 08:30N 36°53' W 076°20'0 0.0
2017-Jun-11 08:00N 36°53' W 076°20'0 0.0
2017-Jun-11 07:24N 36°53' W 076°20'0 0.0
2017-Jun-11 07:00N 36°53' W 076°20'0 0.0
2017-Jun-11 06:30N 36°53' W 076°20'0 0.0
2017-Jun-11 06:00N 36°53' W 076°20'0 0.0
2017-Jun-11 05:30N 36°53' W 076°20'0 0.0
2017-Jun-11 05:00N 36°53' W 076°20'0 0.0
2017-Jun-11 04:30N 36°53' W 076°20'0 0.0
2017-Jun-11 04:00N 36°53' W 076°20'0 0.0
2017-Jun-11 03:24N 36°53' W 076°20'0 0.0
2017-Jun-11 03:00N 36°53' W 076°20'0 0.0
2017-Jun-11 02:30N 36°53' W 076°20'0 0.0
2017-Jun-11 02:00N 36°53' W 076°20'0 0.0
2017-Jun-11 01:30N 36°53' W 076°20'0 0.0
2017-Jun-11 01:00N 36°53' W 076°20'0 0.0
2017-Jun-11 00:30N 36°53' W 076°20'0 0.0
2017-Jun-11 00:00N 36°53' W 076°20'0 0.0
2017-Jun-10 23:30N 36°53' W 076°20'0 0.0
2017-Jun-10 23:00N 36°53' W 076°20'0 0.0
2017-Jun-10 22:31N 36°53' W 076°20'1 1.5
2017-Jun-10 22:00N 36°53' W 076°20'11 7.5
2017-Jun-10 20:31N 36°59' W 076°08'611.0
2017-Jun-10 20:00N 36°57' W 076°01'510.0
2017-Jun-10 19:31N 37°02' W 076°04'714.4
2017-Jun-10 19:00N 37°08' W 076°08'6 9.2
2017-Jun-10 18:24N 37°13' W 076°06'1 0.2
2017-Jun-10 13:19N 37°13' W 076°05'0 0.1
2017-Jun-10 12:58N 37°13' W 076°05'0 0.0
2017-Jun-10 12:25N 37°13' W 076°05'0 0.0
2017-Jun-10 11:28N 37°13' W 076°05'0 0.0
2017-Jun-10 10:49N 37°13' W 076°05'0 0.0
2017-Jun-10 10:28N 37°13' W 076°05'0 0.0
2017-Jun-10 09:58N 37°13' W 076°05'0 0.0
2017-Jun-10 09:28N 37°13' W 076°05'0 0.0
2017-Jun-10 08:49N 37°13' W 076°05'0 0.0
2017-Jun-10 08:22N 37°13' W 076°05'0 0.0
2017-Jun-10 07:55N 37°13' W 076°05'0 0.0
2017-Jun-10 07:28N 37°13' W 076°05'0 0.1
2017-Jun-10 06:19N 37°13' W 076°05'0 0.1
2017-Jun-10 05:55N 37°14' W 076°05'0 0.1
2017-Jun-10 05:25N 37°14' W 076°05'0 0.1
2017-Jun-10 04:55N 37°14' W 076°05'0 0.0
2017-Jun-10 00:55N 37°14' W 076°05'0 0.0
2017-Jun-10 00:28N 37°14' W 076°05'  
2017-Jun-07 17:08N 38°45' W 076°26'214.3
2017-Jun-07 17:00N 38°47' W 076°25'714.5
2017-Jun-07 16:30N 38°54' W 076°24'714.6
2017-Jun-07 16:00N 39°01' W 076°23'713.9
2017-Jun-07 15:30N 39°08' W 076°24'611.5
2017-Jun-07 15:00N 39°12' W 076°30'5 4.5
2017-Jun-07 13:55N 39°15' W 076°34'0 0.0
2017-Jun-07 13:28N 39°15' W 076°34'0 0.0
2017-Jun-07 12:58N 39°15' W 076°34'0 0.0
2017-Jun-07 12:25N 39°15' W 076°34'0 0.0
2017-Jun-07 11:58N 39°15' W 076°34'0 0.0
2017-Jun-07 11:28N 39°15' W 076°34'0 0.0
2017-Jun-07 10:58N 39°15' W 076°34'0 0.0
2017-Jun-07 10:28N 39°15' W 076°34'0 0.0
2017-Jun-07 09:55N 39°15' W 076°34'0 0.0
2017-Jun-07 09:28N 39°15' W 076°34'0 0.0
2017-Jun-07 08:58N 39°15' W 076°34'0 0.0
2017-Jun-07 08:28N 39°15' W 076°34'0 0.0
2017-Jun-07 07:58N 39°15' W 076°34'0 0.0
2017-Jun-07 07:28N 39°15' W 076°34'0 0.0
2017-Jun-07 06:58N 39°15' W 076°34'0 0.0
2017-Jun-07 06:25N 39°15' W 076°34'0 0.0
2017-Jun-07 05:58N 39°15' W 076°34'0 0.0
2017-Jun-07 05:28N 39°15' W 076°34'0 0.0
2017-Jun-07 04:58N 39°15' W 076°34'0 0.0
2017-Jun-07 04:28N 39°15' W 076°34'0 0.0
2017-Jun-07 03:58N 39°15' W 076°34'0 0.0
2017-Jun-07 03:22N 39°15' W 076°34'0 0.0
2017-Jun-07 02:55N 39°15' W 076°34'0 0.0
2017-Jun-07 02:28N 39°15' W 076°34'0 0.0
2017-Jun-07 01:58N 39°15' W 076°34'0 0.0
2017-Jun-07 01:28N 39°15' W 076°34'0 0.0
2017-Jun-07 00:58N 39°15' W 076°34'0 0.0
2017-Jun-07 00:28N 39°15' W 076°34'0 0.0
2017-Jun-06 23:58N 39°15' W 076°34'0 0.0
2017-Jun-06 23:28N 39°15' W 076°34'0 0.0
2017-Jun-06 22:58N 39°15' W 076°34'0 0.0
2017-Jun-06 22:28N 39°15' W 076°34'0 0.0
2017-Jun-06 21:58N 39°15' W 076°34'0 0.0
2017-Jun-06 21:28N 39°15' W 076°34'0 0.0
2017-Jun-06 20:58N 39°15' W 076°34'0 0.4
2017-Jun-06 20:30N 39°15' W 076°34'3 5.9
2017-Jun-06 20:01N 39°13' W 076°32'510.2
2017-Jun-06 19:30N 39°10' W 076°26'713.1
2017-Jun-06 19:00N 39°04' W 076°24'713.1
2017-Jun-06 18:30N 38°57' W 076°24'713.6
2017-Jun-06 18:01N 38°51' W 076°24'4713.6
2017-Jun-06 14:35N 38°05' W 076°13'313.7
2017-Jun-06 14:22N 38°02' W 076°13'5813.1
2017-Jun-06 09:57N 37°04' W 076°06'814.0
2017-Jun-06 09:24N 36°58' W 075°60'410.9
2017-Jun-06 09:00N 36°56' W 075°56'4 8.3
2017-Jun-06 08:30N 36°53' W 075°52'  

Dump ship's entire track history